Terminal Aerodrome Forecast
Issued by NWS

Home | Current Version | Previous Version | Text Only | Print | Product List | Glossary On
Versions: 1 2 3 4 5 6 7 8 9 10 11 12 13 14 15 16
000
FTUS43 KUNR 281120
TAFGCC
TAF
KGCC 281120Z 2812/2912 03008KT 3/4SM -SN OVC003
     FM281300 03008KT 1 1/2SM -SN OVC003
     FM282100 04009KT P6SM OVC050
     FM290500 31004KT P6SM BKN050
     FM290600 29004KT P6SM BKN050
     FM291000 23004KT P6SM BKN080
     FM291100 21004KT P6SM BKN080
      AMD NOT SKED=

USA.gov is the U.S. government's official web portal to all federal, state and local government web resources and services.